Pagina principale
METAR-TAF:

METAR-TAF

Aeroporti :

Aeroporto di Zagabria-Franjo Tuđman

Zagabria, Croazia

latitudine: 45-44N, longitudine: 016-04E, altezza: 106 m

Osservazione

Il bollettino è stato emesso 11 minuti fa, alle 05:00 UTC
Vento calmo
Temperature 13°C
Umidità 88%
Pressione 1015 hPa
Visibilità 10 km o più
Poco nuvoloso ad un'altezza di 4500 ft

METAR: LDZA 240500Z 00000KT 9999 FEW045 13/11 Q1015 NOSIG

Ora: 07:11 (05:11 UTC)

Previsione

Il bollettino è stato emesso 5 ore e 46 minuti fa, alle 23:25 UTC
Previsione valida dal 24 alle 00 UTC al 25 alle 00 UTC
Vento 2 kt da direzioni variabili
Visibilità 10 km o più
nessuna nube inferiore a 1500 m e nessun cumulonembo

TAF: LDZA 232325Z 2400/2500 VRB02KT CAVOK TX23/2413Z TN12/2404Z

Osservazioni e previsioni meteorologiche di più di 4000 aeroporti (messaggi METAR e TAF).

Le stazioni disponibili sono rappresentate dai dischi gialli e rossi sulla carta.

Puntare il mouse per vedere il nome della stazione.

Clicca sopra per visualizzare le osservazioni e previsioni meteorologiche.

Per cambiare la mappa : fare clic sui pulsanti verdi con una croce nera per ingrandire, il pulsante verde con un trattino per diminuire, o sulla freccia verde per le mappe adiacenti.


METAR-TAF: